Airfield :
LOGIN :

Register | Disclaimer

   EN    FR    IT 

 










Legend :    VFR   Marginal VFR   IFR   Intensive IFR   Very Intensive IFR
Visi :
Ceiling :
>= 8 km
>= 3000ft
5 to 8 km
1000 to 3000 ft
1500m to 5 km
500 to 1000 ft
800 to 1500m
200 to 500 ft
< 800m
< 200 ft
Symbols :   Thunderstorms  Fog  Heavy snow  Heavy precipitations  Wind > 20 kt
SIGMETs :     Misc.  Thunderstorms  Icing  Turbulence  Mountain Waves  Volcanic Ashes






- Airport Elevation : 285 ft
- IATA code : OZP


LEMO - Sevilla Moron

CURRENT METAR :
  • 080600Z 12003KT 9999 BKN057 07/05 Q1018 NOSIG

EXPIRED METARs :
  • 080530Z 09003KT 9999 BKN055 08/05 Q1017 NOSIG
  • 080500Z 08005KT 9999 FEW055 08/06 Q1017 NOSIG
  • 080430Z 06006KT 9999 BKN053 09/06 Q1017 NOSIG
  • 080400Z 07007KT 9999 BKN057 09/06 Q1017 NOSIG
  • 080330Z 07007KT 9999 BKN053 09/07 Q1018 NOSIG

TAF TAF LEMO
Valid from the 08 at 03:00 until the 09 at 03:00 UTC


080200Z 0803/0903 08007KT 9999 SCT035 TX17/0815Z TN06/0807Z
PROB30
TEMPO 0812/0821 4000 SHRA SCT030TCU



MET'MAP, your aeronautical weather chart ! - Copyright ORBIFLY December 2007 - Disclaimer

ORBIFLY MET'MAP TEAM :

Programming & Development : Alexandra Zaïnal
Original concept : Baudouin d'Aumeries
Technical & hardware support : Manuel Goepfert
Assistance : Marc-Olivier Méhu




SOURCES & CREDITS :

   NOAA